KEGE/EGE METAR and TAF weather

Enter ICAO airport designator
Station Type Date Time Source
KEGE METAR 2020/01/18 03:56 UTC NOAA

KEGE 180356Z AUTO 29007KT 10SM CLR M08/M12 A3023 RMK AO2 SLP316 T10781117 FZRANO PNO $


Station Type Date Time Source
KEGE Decoded METAR 2020/01/18 03:56 UTC NOAA

Eagle County Regional, CO, United States (KEGE) 39-39N 106-55W
Jan 17, 2020 - 10:56 PM EST / 2020.01.18 0356 UTC
Wind: from the WNW (290 degrees) at 8 MPH (7 KT):0
Visibility: 10 mile(s):0
Sky conditions: clear
Temperature: 18.0 F (-7.8 C)
Windchill: 8 F (-13 C):1
Dew Point: 10.9 F (-11.7 C)
Relative Humidity: 73%
Pressure (altimeter): 30.23 in. Hg (1023 hPa)
ob: KEGE 180356Z AUTO 29007KT 10SM CLR M08/M12 A3023 RMK AO2 SLP316 T10781117 FZRANO PNO
cycle: 4

Station Type Date Time Source
KEGE TAF 2020/01/17 21:12 UTC NOAA

TAF
AMD KEGE 172110Z 1721/1818 25010KT 2SM -SN BR VCSH FEW007 BKN035 OVC050
TEMPO 1721/1722 VRB20G35KT 1/2SM SHSN FZFG SCT007 BKN020
FM172200 24019G30KT 6SM -SHSN BLSN SCT030 BKN045
FM180200 26014G23KT P6SM FEW050 SCT090
FM180700 VRB03KT P6SM FEW100 FEW250

Example: see airport list